Time;durP1;ratioP1;P1;durP2;ratioP2;P2;SDS_P1;SDS_P2;PMS_P1;PMS_P2;Temp;Humidity;BMP_temperature;BMP_pressure;BME280_temperature;BME280_humidity;BME280_pressure;Samples;Min_cycle;Max_cycle;Signal;HPM_P1;HPM_P2
2021/05/17 00:00:15;;;;;;;8.25;4.80;;;16.30;74.00;;;;;;5072328;28;20023;-78
2021/05/17 00:02:43;;;;;;;7.28;4.70;;;16.20;74.00;;;;;;5078398;28;20481;-77
2021/05/17 00:05:10;;;;;;;10.68;5.55;;;16.20;74.40;;;;;;5103896;28;20023;-77
2021/05/17 00:07:36;;;;;;;10.57;6.30;;;16.10;75.20;;;;;;5100726;28;20545;-78
2021/05/17 00:10:05;;;;;;;10.57;5.95;;;16.10;76.30;;;;;;5085223;28;20020;-78
2021/05/17 00:12:31;;;;;;;8.75;5.47;;;16.00;77.90;;;;;;5094771;28;20020;-77
2021/05/17 00:14:57;;;;;;;7.38;5.47;;;16.00;79.40;;;;;;5099769;28;20035;-77
2021/05/17 00:17:23;;;;;;;6.72;5.00;;;15.90;79.90;;;;;;5079722;28;20080;-77
2021/05/17 00:19:49;;;;;;;6.85;5.00;;;15.80;80.10;;;;;;5101132;28;20525;-77
2021/05/17 00:22:15;;;;;;;6.30;4.50;;;15.80;79.80;;;;;;5102969;28;20086;-77
2021/05/17 00:24:41;;;;;;;8.93;5.57;;;15.80;79.70;;;;;;5110663;28;20492;-77
2021/05/17 00:27:07;;;;;;;9.55;6.88;;;15.80;81.00;;;;;;5100000;28;20744;-76
2021/05/17 00:29:33;;;;;;;9.13;7.07;;;15.80;82.70;;;;;;5099064;28;20076;-76
2021/05/17 00:31:59;;;;;;;8.63;5.65;;;15.80;83.40;;;;;;5105969;28;20028;-77
2021/05/17 00:34:25;;;;;;;7.80;5.60;;;15.70;82.50;;;;;;5089064;28;20027;-77
2021/05/17 00:36:53;;;;;;;7.95;6.22;;;15.70;82.70;;;;;;5090829;28;20567;-76
2021/05/17 00:39:19;;;;;;;11.55;6.43;;;15.60;82.90;;;;;;5085007;28;20096;-76
2021/05/17 00:41:45;;;;;;;8.80;6.07;;;15.60;83.90;;;;;;5106188;28;20108;-77
2021/05/17 00:44:11;;;;;;;7.15;5.53;;;15.60;84.00;;;;;;5102484;28;20031;-77
2021/05/17 00:46:39;;;;;;;6.82;5.80;;;15.60;84.20;;;;;;5090024;28;20028;-77
2021/05/17 00:49:05;;;;;;;10.98;6.00;;;15.60;84.40;;;;;;5093164;28;20028;-77
2021/05/17 00:51:32;;;;;;;9.30;5.47;;;15.60;84.80;;;;;;5092122;28;20024;-77
2021/05/17 00:54:00;;;;;;;6.65;5.47;;;15.60;85.10;;;;;;5092822;28;20023;-77
2021/05/17 00:56:25;;;;;;;6.95;5.30;;;15.60;85.90;;;;;;5089698;28;20676;-77
2021/05/17 00:58:51;;;;;;;7.10;4.68;;;15.60;86.10;;;;;;5101625;28;20016;-77
2021/05/17 01:01:18;;;;;;;6.10;4.45;;;15.50;86.10;;;;;;5080282;28;20038;-77
2021/05/17 01:03:44;;;;;;;6.13;5.10;;;15.50;86.20;;;;;;5086238;28;20028;-77
2021/05/17 01:06:11;;;;;;;6.40;5.20;;;15.50;86.50;;;;;;5105515;28;20074;-78
2021/05/17 01:09:01;;;;;;;6.68;4.70;;;15.50;86.90;;;;;;5091647;28;20020;-78
2021/05/17 01:11:31;;;;;;;6.57;5.25;;;15.50;86.80;;;;;;5095536;28;20036;-78
2021/05/17 01:14:06;;;;;;;8.93;5.25;;;15.40;86.40;;;;;;5092340;28;20024;-77
2021/05/17 01:16:35;;;;;;;7.45;5.93;;;15.40;86.50;;;;;;5082623;28;20035;-77
2021/05/17 01:19:01;;;;;;;6.70;5.93;;;15.40;86.50;;;;;;5109738;28;20469;-77
2021/05/17 01:21:35;;;;;;;7.97;6.43;;;15.30;87.20;;;;;;5096568;28;20114;-77
2021/05/17 01:24:01;;;;;;;9.23;7.22;;;15.20;87.90;;;;;;5083404;28;20484;-78
2021/05/17 01:26:30;;;;;;;9.20;6.03;;;15.20;88.30;;;;;;5097280;28;20031;-77
2021/05/17 01:29:06;;;;;;;8.25;6.10;;;15.10;88.30;;;;;;5109374;28;20073;-78
2021/05/17 01:31:35;;;;;;;8.80;5.78;;;15.10;88.40;;;;;;5097063;28;20055;-78
2021/05/17 01:34:09;;;;;;;8.70;6.60;;;15.00;88.20;;;;;;5105139;28;20016;-78
2021/05/17 01:36:46;;;;;;;7.68;5.90;;;15.00;88.30;;;;;;5114447;28;20027;-77
2021/05/17 01:39:17;;;;;;;7.32;5.88;;;15.00;88.70;;;;;;5084592;28;20131;-77
2021/05/17 01:44:48;;;;;;;5.25;4.70;;;15.00;88.70;;;;;;5084060;28;20089;-78
2021/05/17 01:47:21;;;;;;;6.25;4.43;;;15.00;88.50;;;;;;5081961;28;20024;-78
2021/05/17 01:50:02;;;;;;;10.43;5.13;;;15.00;88.50;;;;;;5091885;28;20484;-78
2021/05/17 01:52:37;;;;;;;19.13;9.73;;;15.00;88.90;;;;;;5088898;28;20029;-76
2021/05/17 01:55:12;;;;;;;19.17;12.35;;;15.00;90.40;;;;;;5083259;28;20020;-77
2021/05/17 01:57:43;;;;;;;13.45;9.60;;;14.70;90.30;;;;;;5101777;28;20056;-86
2021/05/17 02:00:11;;;;;;;13.88;8.80;;;14.60;91.00;;;;;;5087658;28;20480;-83
2021/05/17 02:02:37;;;;;;;10.45;8.63;;;14.40;91.30;;;;;;5085095;28;20074;-86
2021/05/17 02:05:05;;;;;;;11.90;9.20;;;14.30;91.60;;;;;;5097590;28;20032;-85
2021/05/17 02:07:40;;;;;;;10.30;8.68;;;14.30;91.90;;;;;;5096566;28;20028;-85
2021/05/17 02:10:10;;;;;;;10.70;8.95;;;14.20;92.30;;;;;;5100780;28;20016;-84
2021/05/17 02:12:42;;;;;;;12.15;9.60;;;14.30;92.40;;;;;;5087619;28;20048;-86
2021/05/17 02:15:14;;;;;;;12.43;9.47;;;14.30;92.70;;;;;;5087038;28;20305;-86
2021/05/17 02:17:47;;;;;;;11.60;9.00;;;14.30;93.00;;;;;;5093323;28;20264;-83
2021/05/17 02:20:18;;;;;;;15.85;10.60;;;14.20;93.00;;;;;;5091521;28;20480;-84
2021/05/17 02:22:50;;;;;;;11.68;8.95;;;14.20;93.20;;;;;;5091629;28;20032;-83
2021/05/17 02:25:44;;;;;;;12.65;10.07;;;14.20;93.30;;;;;;5085955;28;20496;-83
2021/05/17 02:28:14;;;;;;;11.88;9.82;;;14.20;93.40;;;;;;5090917;28;20028;-83
2021/05/17 02:30:43;;;;;;;12.32;9.10;;;14.20;93.50;;;;;;5091470;28;20017;-82
2021/05/17 02:33:26;;;;;;;12.63;9.50;;;14.20;93.60;;;;;;5074394;28;20024;-82
2021/05/17 02:35:52;;;;;;;11.95;8.77;;;14.10;93.70;;;;;;5092551;28;20016;-84
2021/05/17 02:38:18;;;;;;;10.10;8.60;;;14.10;93.70;;;;;;5083956;28;20028;-82
2021/05/17 02:40:47;;;;;;;10.48;8.57;;;14.10;93.80;;;;;;5101721;28;20044;-82
2021/05/17 02:43:13;;;;;;;11.68;8.20;;;14.10;93.90;;;;;;5095308;28;20082;-84
2021/05/17 02:45:43;;;;;;;11.98;9.18;;;14.10;94.00;;;;;;5088000;28;20508;-84
2021/05/17 02:48:25;;;;;;;12.90;10.70;;;14.10;93.90;;;;;;5095229;28;20039;-82
2021/05/17 02:50:57;;;;;;;12.40;9.63;;;14.10;94.00;;;;;;5113922;28;20019;-83
2021/05/17 02:53:32;;;;;;;12.35;9.25;;;14.00;94.00;;;;;;5097517;28;20016;-83
2021/05/17 02:56:07;;;;;;;12.23;10.15;;;14.00;94.20;;;;;;5126312;27;20012;-83
2021/05/17 02:58:38;;;;;;;14.10;9.43;;;14.00;94.10;;;;;;5095116;28;20050;-84
2021/05/17 03:01:08;;;;;;;13.70;10.52;;;14.00;94.40;;;;;;5111782;28;20027;-84
2021/05/17 03:03:46;;;;;;;15.05;10.82;;;14.00;94.30;;;;;;5113174;28;20569;-83
2021/05/17 03:06:17;;;;;;;14.27;10.82;;;14.00;94.40;;;;;;5111947;28;20036;-82
2021/05/17 03:09:07;;;;;;;12.00;10.00;;;14.00;94.70;;;;;;5113237;28;20024;-85
2021/05/17 03:11:41;;;;;;;15.38;11.63;;;14.10;94.60;;;;;;5088314;28;20040;-84
2021/05/17 03:14:09;;;;;;;15.23;11.63;;;14.00;94.80;;;;;;5088333;28;20027;-82
2021/05/17 03:16:37;;;;;;;14.50;10.98;;;14.10;95.00;;;;;;5100451;28;20008;-83
2021/05/17 03:19:04;;;;;;;13.98;11.35;;;14.10;95.20;;;;;;5108086;28;20023;-84
2021/05/17 03:21:32;;;;;;;15.90;11.57;;;14.10;95.10;;;;;;5093835;28;20024;-82
2021/05/17 03:23:59;;;;;;;15.73;10.95;;;14.20;95.10;;;;;;5094142;28;20500;-81
2021/05/17 03:26:26;;;;;;;14.38;10.77;;;14.20;95.20;;;;;;5094560;28;20031;-83
2021/05/17 03:28:53;;;;;;;12.98;10.90;;;14.30;95.30;;;;;;5091325;28;20031;-83
2021/05/17 03:31:19;;;;;;;14.95;11.63;;;14.30;95.10;;;;;;5106024;28;20046;-82
2021/05/17 03:33:45;;;;;;;13.25;10.05;;;14.30;95.20;;;;;;5092868;28;20473;-82
2021/05/17 03:36:11;;;;;;;13.38;10.65;;;14.30;95.20;;;;;;5103925;28;20028;-83
2021/05/17 03:38:38;;;;;;;13.30;11.23;;;14.30;95.20;;;;;;5108679;28;20020;-83
2021/05/17 03:41:06;;;;;;;13.80;11.20;;;14.30;95.10;;;;;;5104507;28;20091;-83
2021/05/17 03:43:33;;;;;;;13.27;10.93;;;14.20;95.10;;;;;;5095617;28;20024;-83
2021/05/17 03:45:58;;;;;;;14.07;10.82;;;14.30;95.20;;;;;;5107333;28;20024;-83
2021/05/17 03:48:24;;;;;;;12.48;10.23;;;14.20;95.30;;;;;;5110253;28;20026;-83
2021/05/17 03:50:50;;;;;;;12.85;11.27;;;14.30;95.40;;;;;;5109787;28;20483;-82
2021/05/17 03:53:17;;;;;;;13.98;11.27;;;14.30;95.40;;;;;;5100537;28;20021;-86
2021/05/17 03:55:43;;;;;;;14.75;10.93;;;14.30;95.40;;;;;;5100268;28;20027;-84
2021/05/17 03:58:09;;;;;;;12.25;9.55;;;14.30;95.50;;;;;;5082757;28;20024;-86
2021/05/17 04:00:34;;;;;;;9.82;8.35;;;14.30;95.80;;;;;;5076175;28;20089;-86
2021/05/17 04:03:06;;;;;;;12.32;9.30;;;14.40;95.90;;;;;;5110065;28;20019;-86
2021/05/17 04:13:29;;;;;;;14.35;11.27;;;14.50;95.70;;;;;;5117941;28;20050;-86
2021/05/17 04:15:55;;;;;;;10.63;9.52;;;14.50;95.60;;;;;;5076292;28;20056;-86
2021/05/17 04:18:22;;;;;;;13.75;9.73;;;14.50;95.70;;;;;;5081244;28;20024;-84
2021/05/17 04:20:50;;;;;;;11.50;9.75;;;14.50;95.90;;;;;;5097352;28;20058;-84
2021/05/17 04:23:21;;;;;;;10.32;8.45;;;14.50;96.20;;;;;;5114532;28;20024;-87
2021/05/17 04:25:47;;;;;;;10.43;8.77;;;14.50;96.30;;;;;;5114095;28;20111;-86
2021/05/17 04:28:14;;;;;;;11.82;8.77;;;14.50;96.30;;;;;;5110762;28;20054;-84
2021/05/17 04:30:40;;;;;;;13.43;10.13;;;14.50;96.60;;;;;;5114037;27;20089;-84
2021/05/17 04:33:11;;;;;;;13.95;9.90;;;14.60;96.40;;;;;;5114953;28;20031;-84
2021/05/17 04:35:37;;;;;;;11.63;9.73;;;14.60;96.30;;;;;;5086976;28;20070;-85
2021/05/17 04:38:03;;;;;;;12.15;10.23;;;14.70;97.00;;;;;;5118046;28;20037;-86
2021/05/17 04:40:30;;;;;;;13.15;10.65;;;14.70;97.00;;;;;;5109798;28;20036;-84
2021/05/17 04:42:56;;;;;;;10.90;9.07;;;14.80;97.50;;;;;;5085851;28;20062;-87
2021/05/17 04:45:24;;;;;;;9.35;8.30;;;14.90;97.50;;;;;;5085530;28;20027;-86
2021/05/17 04:47:50;;;;;;;14.82;10.43;;;14.90;97.70;;;;;;5100573;28;20107;-87
2021/05/17 04:50:16;;;;;;;11.00;9.32;;;15.00;97.60;;;;;;5094524;28;20063;-87
2021/05/17 04:52:42;;;;;;;11.80;9.35;;;15.10;97.50;;;;;;5102091;28;20380;-88
2021/05/17 04:55:09;;;;;;;11.63;9.05;;;15.10;97.40;;;;;;5119551;28;20073;-87
2021/05/17 04:57:35;;;;;;;9.80;8.80;;;15.10;97.20;;;;;;5097637;28;20060;-88
2021/05/17 05:00:01;;;;;;;11.45;9.40;;;15.20;97.00;;;;;;5097870;28;20051;-87
2021/05/17 05:02:27;;;;;;;12.65;9.38;;;15.20;97.60;;;;;;5091719;28;20042;-87
2021/05/17 05:04:53;;;;;;;11.85;10.38;;;15.30;98.60;;;;;;5098749;28;20020;-88
2021/05/17 05:07:20;;;;;;;12.40;9.48;;;15.40;98.70;;;;;;5125085;28;20019;-87
2021/05/17 05:09:49;;;;;;;10.90;8.93;;;15.50;99.10;;;;;;5113392;28;20055;-89
2021/05/17 05:12:17;;;;;;;11.05;8.77;;;15.50;99.10;;;;;;5118112;28;20025;-89
2021/05/17 05:14:45;;;;;;;11.50;9.02;;;15.70;99.90;;;;;;5115162;28;20028;-88
2021/05/17 05:17:10;;;;;;;12.40;9.98;;;15.80;99.60;;;;;;5081485;28;20034;-82
2021/05/17 05:19:39;;;;;;;11.57;9.25;;;15.80;99.30;;;;;;5089707;28;20055;-88
2021/05/17 05:22:08;;;;;;;12.45;9.85;;;15.90;98.40;;;;;;5100291;28;20583;-88
2021/05/17 05:24:33;;;;;;;9.98;8.90;;;15.90;98.40;;;;;;5097782;28;20027;-88
2021/05/17 05:29:57;;;;;;;10.45;9.10;;;16.00;98.90;;;;;;5115116;28;20035;-88
2021/05/17 05:32:30;;;;;;;12.23;9.43;;;16.10;99.00;;;;;;5115910;28;20039;-88
2021/05/17 05:34:56;;;;;;;10.80;8.98;;;16.20;99.60;;;;;;5116621;28;20016;-87
2021/05/17 05:37:22;;;;;;;10.45;9.35;;;16.40;99.50;;;;;;5121885;28;20019;-88
2021/05/17 05:39:49;;;;;;;10.18;8.25;;;16.50;99.60;;;;;;5098424;28;20128;-88
2021/05/17 05:42:15;;;;;;;9.80;8.43;;;16.60;98.70;;;;;;5087116;28;20038;-86
2021/05/17 05:44:47;;;;;;;12.50;8.50;;;16.60;98.40;;;;;;5083347;28;20084;-85
2021/05/17 05:47:17;;;;;;;12.00;9.77;;;16.70;97.80;;;;;;5083170;28;20040;-82
2021/05/17 05:49:51;;;;;;;9.68;8.27;;;16.80;97.50;;;;;;5077304;28;20040;-88
2021/05/17 05:52:17;;;;;;;10.20;8.50;;;16.80;96.90;;;;;;5092473;28;20028;-88
2021/05/17 05:54:49;;;;;;;12.07;9.30;;;16.90;97.10;;;;;;5090152;28;20028;-86
2021/05/17 05:57:15;;;;;;;10.63;8.57;;;16.90;97.20;;;;;;5086127;28;20025;-87
2021/05/17 05:59:43;;;;;;;10.38;8.55;;;16.90;97.30;;;;;;5082503;28;20029;-85
2021/05/17 06:02:09;;;;;;;10.55;7.93;;;17.10;97.40;;;;;;5073939;28;20036;-86
2021/05/17 06:04:34;;;;;;;10.63;8.73;;;17.20;97.00;;;;;;5083560;28;20046;-86
2021/05/17 06:07:00;;;;;;;10.18;7.35;;;17.20;97.20;;;;;;5071567;28;20036;-83
2021/05/17 06:09:26;;;;;;;10.27;7.93;;;17.20;96.70;;;;;;5076224;28;20030;-84
2021/05/17 06:11:53;;;;;;;9.65;7.30;;;17.20;96.50;;;;;;5072782;28;20369;-82
2021/05/17 06:14:22;;;;;;;8.30;7.22;;;17.20;95.50;;;;;;5083394;28;20086;-81
2021/05/17 06:16:49;;;;;;;8.68;6.97;;;17.20;95.70;;;;;;5068309;28;20632;-82
2021/05/17 06:19:16;;;;;;;8.45;7.28;;;17.10;95.20;;;;;;5062935;28;20516;-82
2021/05/17 06:21:42;;;;;;;8.85;7.28;;;17.00;94.50;;;;;;5066685;28;22282;-80
2021/05/17 06:24:20;;;;;;;10.35;8.35;;;17.10;95.20;;;;;;5071335;28;20465;-80
2021/05/17 06:26:47;;;;;;;8.73;7.55;;;17.10;94.50;;;;;;5068120;28;20048;-79
2021/05/17 06:29:14;;;;;;;9.45;7.55;;;17.20;96.00;;;;;;5060434;28;20070;-79
2021/05/17 06:31:45;;;;;;;10.65;8.13;;;17.40;96.80;;;;;;5061629;28;20028;-80
2021/05/17 06:34:13;;;;;;;10.90;7.72;;;17.60;97.20;;;;;;5071714;28;20024;-83
2021/05/17 06:36:41;;;;;;;8.85;7.13;;;17.80;96.50;;;;;;5057221;28;20059;-84
2021/05/17 06:39:08;;;;;;;9.07;7.28;;;17.90;96.20;;;;;;5070768;28;20040;-83
2021/05/17 06:41:42;;;;;;;8.75;7.20;;;18.20;98.00;;;;;;5080088;28;20039;-86
2021/05/17 06:44:08;;;;;;;7.82;6.63;;;18.50;98.80;;;;;;5083095;28;20078;-85
2021/05/17 06:46:42;;;;;;;9.45;7.50;;;18.70;98.90;;;;;;5070583;28;20741;-83
2021/05/17 06:49:10;;;;;;;8.00;6.30;;;18.90;96.70;;;;;;5074029;28;20933;-84
2021/05/17 06:51:54;;;;;;;6.70;6.00;;;19.00;95.00;;;;;;5073222;28;20681;-85
2021/05/17 06:54:29;;;;;;;8.30;6.30;;;18.90;94.40;;;;;;5077505;28;20035;-85
2021/05/17 06:57:09;;;;;;;7.50;6.55;;;19.00;95.00;;;;;;5070490;28;20017;-84
2021/05/17 06:59:54;;;;;;;7.13;6.22;;;19.10;94.40;;;;;;5064396;28;20021;-86
2021/05/17 07:02:23;;;;;;;8.07;5.63;;;19.00;93.90;;;;;;5064737;28;20032;-82
2021/05/17 07:05:14;;;;;;;7.40;6.13;;;19.00;93.30;;;;;;5074816;28;20466;-83
2021/05/17 07:13:16;;;;;;;9.95;7.15;;;19.10;93.10;;;;;;5072361;28;20042;-84
2021/05/17 07:15:42;;;;;;;9.80;7.43;;;19.10;93.20;;;;;;5073153;28;20103;-84
2021/05/17 07:18:11;;;;;;;8.95;7.97;;;19.00;92.30;;;;;;5066103;28;20021;-83
2021/05/17 07:26:35;;;;;;;8.60;7.45;;;18.70;90.60;;;;;;5048596;28;20281;-82
2021/05/17 07:29:01;;;;;;;9.70;7.65;;;18.40;91.70;;;;;;5043132;28;20056;-81
2021/05/17 07:31:46;;;;;;;;;;;;;;;;;;;;;
2021/05/17 07:34:15;;;;;;;11.60;8.82;;;18.10;91.40;;;;;;5043290;28;20038;-83
2021/05/17 07:36:46;;;;;;;9.93;7.97;;;18.00;91.40;;;;;;5044838;28;20037;-83
2021/05/17 07:39:15;;;;;;;10.98;8.13;;;17.90;91.10;;;;;;5060597;28;20489;-84
2021/05/17 07:41:42;;;;;;;8.82;7.75;;;17.70;91.50;;;;;;5050708;28;20169;-83
2021/05/17 07:44:17;;;;;;;8.02;6.57;;;17.60;91.60;;;;;;5044148;28;20506;-82
2021/05/17 07:46:43;;;;;;;10.10;8.13;;;17.40;92.30;;;;;;5044407;28;20040;-82
2021/05/17 07:49:12;;;;;;;7.82;7.03;;;17.40;91.80;;;;;;5038361;28;20041;-82
2021/05/17 07:51:42;;;;;;;8.60;6.97;;;17.30;91.90;;;;;;5049851;28;20033;-82
2021/05/17 07:54:15;;;;;;;10.73;8.98;;;17.30;92.30;;;;;;5036022;28;20553;-83
2021/05/17 07:56:42;;;;;;;11.82;9.35;;;17.20;92.00;;;;;;5047920;28;20079;-80
2021/05/17 07:59:08;;;;;;;11.02;9.73;;;17.20;92.30;;;;;;5038419;28;20024;-81
2021/05/17 08:01:37;;;;;;;10.88;8.50;;;17.10;92.60;;;;;;5029555;28;20032;-79
2021/05/17 08:04:09;;;;;;;10.75;7.25;;;17.00;92.70;;;;;;5031556;28;20558;-79
2021/05/17 08:06:37;;;;;;;10.20;6.20;;;17.00;93.00;;;;;;5038234;28;20025;-78
2021/05/17 08:09:04;;;;;;;16.42;11.07;;;16.90;92.90;;;;;;5015558;28;20158;-78
2021/05/17 08:11:32;;;;;;;13.25;10.25;;;16.80;92.60;;;;;;5022514;28;20044;-79
2021/05/17 08:13:58;;;;;;;13.98;11.07;;;16.60;92.30;;;;;;5026865;28;20348;-78
2021/05/17 08:16:26;;;;;;;15.13;11.70;;;16.40;92.40;;;;;;5028272;28;20659;-80
2021/05/17 08:18:52;;;;;;;14.70;12.63;;;16.10;92.50;;;;;;5045844;28;20043;-79
2021/05/17 08:21:18;;;;;;;18.52;15.55;;;15.90;92.90;;;;;;5023241;28;20040;-79
2021/05/17 08:23:44;;;;;;;21.73;18.42;;;15.80;93.20;;;;;;5028033;28;20040;-82
2021/05/17 08:26:09;;;;;;;29.20;24.92;;;15.60;93.40;;;;;;5038701;28;20044;-80
2021/05/17 08:28:36;;;;;;;18.95;15.65;;;15.60;93.70;;;;;;5025352;28;20032;-81
2021/05/17 08:31:03;;;;;;;17.90;14.10;;;15.50;94.00;;;;;;5043489;28;20029;-81
2021/05/17 08:33:32;;;;;;;16.05;13.55;;;15.40;94.30;;;;;;5048012;28;20040;-79
2021/05/17 08:35:58;;;;;;;20.85;16.83;;;15.40;94.60;;;;;;5044974;28;20029;-80
2021/05/17 08:38:24;;;;;;;22.02;15.07;;;15.40;94.80;;;;;;5041268;28;20476;-78
2021/05/17 08:40:50;;;;;;;18.17;14.07;;;15.50;95.20;;;;;;5045745;28;20083;-80
2021/05/17 08:51:38;;;;;;;24.75;21.27;;;15.80;94.70;;;;;;5006842;28;20427;-83
2021/05/17 08:54:06;;;;;;;21.10;18.48;;;15.80;95.90;;;;;;5000600;28;20029;-83
2021/05/17 08:56:33;;;;;;;21.20;16.42;;;15.90;96.70;;;;;;5013813;28;20029;-82
2021/05/17 08:59:10;;;;;;;21.80;16.67;;;16.10;97.20;;;;;;5004836;28;20041;-83
2021/05/17 09:01:36;;;;;;;30.20;17.38;;;16.20;97.40;;;;;;5003790;28;20080;-83
2021/05/17 09:04:06;;;;;;;25.38;19.92;;;16.30;98.10;;;;;;5006158;28;20026;-83
2021/05/17 09:06:41;;;;;;;25.55;21.88;;;16.50;98.20;;;;;;5014116;28;20403;-83
2021/05/17 09:09:32;;;;;;;31.10;25.02;;;16.70;98.20;;;;;;5007988;28;20096;-85
2021/05/17 09:12:01;;;;;;;31.27;25.52;;;16.90;98.40;;;;;;5003417;28;20029;-85
2021/05/17 09:14:28;;;;;;;27.27;22.67;;;17.00;98.40;;;;;;5008421;28;20050;-85
2021/05/17 09:17:06;;;;;;;25.30;20.85;;;17.10;98.50;;;;;;5003527;28;20045;-84
2021/05/17 09:19:32;;;;;;;24.00;20.20;;;17.20;98.80;;;;;;5003239;28;20494;-84
2021/05/17 09:22:07;;;;;;;25.92;21.08;;;17.20;98.60;;;;;;5005160;28;20055;-84
2021/05/17 09:24:41;;;;;;;24.77;21.10;;;17.30;98.30;;;;;;5006619;28;20030;-83
2021/05/17 09:27:10;;;;;;;25.40;19.60;;;17.40;98.40;;;;;;5001731;28;20038;-83
2021/05/17 09:29:47;;;;;;;24.30;20.63;;;17.50;99.90;;;;;;5005766;28;20034;-83
2021/05/17 09:32:16;;;;;;;25.77;20.27;;;17.80;99.90;;;;;;4997051;28;20037;-81
2021/05/17 09:34:43;;;;;;;23.77;19.80;;;17.90;99.90;;;;;;5000762;28;20148;-83
2021/05/17 09:37:10;;;;;;;23.67;19.55;;;18.10;99.90;;;;;;4998291;28;20034;-83
2021/05/17 09:39:46;;;;;;;25.88;20.77;;;18.30;99.90;;;;;;4993082;28;20025;-83
2021/05/17 09:42:11;;;;;;;20.20;18.00;;;18.40;99.90;;;;;;4997548;28;20039;-85
2021/05/17 09:44:41;;;;;;;22.85;18.40;;;18.50;99.10;;;;;;4997833;28;20038;-85
2021/05/17 09:47:08;;;;;;;20.65;17.27;;;18.50;99.80;;;;;;4998237;28;20034;-83
2021/05/17 09:49:42;;;;;;;15.90;14.18;;;18.70;99.90;;;;;;5006773;28;20046;-86
2021/05/17 09:52:07;;;;;;;18.13;16.10;;;18.90;99.90;;;;;;4997887;28;21112;-84
2021/05/17 09:54:47;;;;;;;16.48;14.77;;;19.10;99.90;;;;;;4997689;28;20092;-84
2021/05/17 09:57:16;;;;;;;18.40;15.90;;;19.20;99.90;;;;;;5006231;28;20022;-85
2021/05/17 09:59:47;;;;;;;15.88;13.88;;;19.40;99.90;;;;;;5000085;28;20091;-85
2021/05/17 10:02:40;;;;;;;15.40;13.80;;;19.60;99.90;;;;;;4981789;28;20030;-88
2021/05/17 10:06:15;;;;;;;13.48;11.70;;;19.90;99.90;;;;;;4986909;28;20030;-85
2021/05/17 10:08:45;;;;;;;12.95;11.55;;;20.20;99.30;;;;;;4942688;28;20477;-89
2021/05/17 10:11:11;;;;;;;12.73;10.82;;;20.40;97.60;;;;;;4986366;28;20117;-89
2021/05/17 10:13:38;;;;;;;12.27;10.77;;;20.60;98.60;;;;;;4997830;28;20405;-87
2021/05/17 10:16:13;;;;;;;11.85;10.65;;;20.70;96.60;;;;;;4996561;28;20506;-87
2021/05/17 10:18:40;;;;;;;10.45;9.38;;;20.80;96.30;;;;;;5002968;28;20029;-88
2021/05/17 10:21:16;;;;;;;11.70;10.52;;;20.90;95.30;;;;;;4996562;28;20045;-88
2021/05/17 10:23:42;;;;;;;11.75;10.40;;;21.00;94.70;;;;;;4998267;28;20109;-87
2021/05/17 10:26:14;;;;;;;12.10;10.90;;;21.10;94.90;;;;;;4995670;28;20037;-87
2021/05/17 10:28:46;;;;;;;12.52;11.25;;;21.30;94.40;;;;;;4995037;28;20062;-88
2021/05/17 10:31:20;;;;;;;11.57;10.38;;;21.30;92.80;;;;;;4996162;28;20049;-88
2021/05/17 10:34:01;;;;;;;10.85;9.25;;;21.20;90.60;;;;;;4997528;28;20038;-88
2021/05/17 10:36:57;;;;;;;12.38;10.43;;;21.20;91.70;;;;;;5002777;28;20025;-88
2021/05/17 10:39:46;;;;;;;11.50;10.13;;;21.10;92.10;;;;;;4995924;28;20050;-87
2021/05/17 10:48:11;;;;;;;9.25;8.27;;;21.60;90.80;;;;;;4993524;28;20040;-87
2021/05/17 10:50:38;;;;;;;9.15;8.20;;;21.70;90.70;;;;;;4991169;28;21172;-87
2021/05/17 10:53:03;;;;;;;13.50;9.07;;;21.80;91.50;;;;;;4970670;28;20060;-86
2021/05/17 10:55:30;;;;;;;8.93;8.02;;;21.90;91.00;;;;;;4989076;28;20049;-87
2021/05/17 11:01:25;;;;;;;8.60;7.80;;;21.90;80.30;;;;;;5095141;27;20475;-86
2021/05/17 11:04:28;;;;;;;10.55;8.80;;;22.00;90.90;;;;;;5121983;27;20152;-86
2021/05/17 11:07:09;;;;;;;9.25;8.35;;;22.00;84.50;;;;;;5096256;28;20028;-87
2021/05/17 11:09:50;;;;;;;8.52;7.72;;;22.10;91.10;;;;;;5107574;28;20028;-86
2021/05/17 11:12:28;;;;;;;8.90;8.05;;;22.30;91.30;;;;;;5106383;28;20166;-86
2021/05/17 11:15:13;;;;;;;8.65;7.80;;;22.50;90.10;;;;;;5116032;27;20051;-86
2021/05/17 11:24:02;;;;;;;7.97;7.22;;;22.50;91.00;;;;;;5034244;28;20482;-85
2021/05/17 11:26:31;;;;;;;8.30;7.50;;;22.60;93.10;;;;;;5034257;28;20375;-84
2021/05/17 11:29:00;;;;;;;9.20;7.65;;;22.70;93.50;;;;;;5065796;28;20021;-83
2021/05/17 11:36:00;;;;;;;8.90;8.02;;;23.10;91.70;;;;;;5046179;28;20494;-85
2021/05/17 11:38:27;;;;;;;9.00;7.50;;;23.40;91.10;;;;;;5026653;28;20542;-85
2021/05/17 11:40:56;;;;;;;8.88;7.93;;;23.40;91.60;;;;;;5033641;28;20095;-86
2021/05/17 11:43:26;;;;;;;9.85;8.82;;;23.50;91.30;;;;;;5036350;28;20033;-85
2021/05/17 11:45:54;;;;;;;10.63;9.63;;;23.60;90.40;;;;;;5041588;28;20048;-85
2021/05/17 11:48:26;;;;;;;9.15;8.25;;;23.50;90.70;;;;;;5030810;28;20032;-84
2021/05/17 11:50:52;;;;;;;9.83;8.93;;;23.30;90.70;;;;;;5033833;28;20029;-84
2021/05/17 11:53:21;;;;;;;9.52;8.63;;;23.20;91.40;;;;;;5036236;28;20034;-85
2021/05/17 11:55:48;;;;;;;10.48;9.35;;;23.10;90.80;;;;;;5037639;28;20025;-82
2021/05/17 11:58:24;;;;;;;9.65;8.65;;;23.00;91.10;;;;;;5029398;28;20029;-85
2021/05/17 12:01:13;;;;;;;10.90;9.73;;;23.00;90.80;;;;;;5041096;28;20525;-84
2021/05/17 12:03:42;;;;;;;10.70;9.70;;;23.00;86.30;;;;;;5030470;28;21809;-84
2021/05/17 12:06:08;;;;;;;11.35;10.13;;;23.10;92.20;;;;;;5027677;28;20034;-86
2021/05/17 12:08:37;;;;;;;10.30;9.30;;;23.10;91.90;;;;;;5020950;28;20044;-84
2021/05/17 12:11:02;;;;;;;11.88;10.10;;;23.10;91.50;;;;;;5030737;28;20045;-85
2021/05/17 12:13:30;;;;;;;11.77;10.57;;;23.00;91.50;;;;;;5029800;28;20083;-84
2021/05/17 12:16:46;;;;;;;11.02;9.90;;;22.90;91.00;;;;;;5037956;28;20060;-86
2021/05/17 12:19:15;;;;;;;10.05;8.98;;;22.70;89.70;;;;;;4993817;28;20072;-85
2021/05/17 12:21:41;;;;;;;10.15;9.10;;;22.50;90.00;;;;;;4997007;28;20439;-84
2021/05/17 12:24:07;;;;;;;11.48;10.30;;;22.40;91.20;;;;;;5016064;28;20118;-84
2021/05/17 12:26:51;;;;;;;11.82;10.73;;;22.30;90.40;;;;;;5022361;28;20041;-86
2021/05/17 12:29:19;;;;;;;11.30;10.20;;;22.20;87.30;;;;;;5021327;28;20049;-86
2021/05/17 12:31:45;;;;;;;10.38;9.32;;;22.10;90.40;;;;;;5019318;28;20033;-85
2021/05/17 12:34:11;;;;;;;11.10;10.00;;;22.00;90.10;;;;;;5021403;28;20450;-85
2021/05/17 12:36:37;;;;;;;11.63;10.27;;;21.90;90.20;;;;;;5027898;28;20029;-85
2021/05/17 12:39:04;;;;;;;12.05;10.93;;;21.80;90.70;;;;;;5021278;28;20382;-85
2021/05/17 12:41:40;;;;;;;11.95;10.75;;;21.80;90.90;;;;;;5026656;28;20028;-84
2021/05/17 12:44:35;;;;;;;11.13;10.02;;;21.80;90.60;;;;;;5032028;28;20030;-86
2021/05/17 12:47:10;;;;;;;12.15;10.85;;;21.80;88.50;;;;;;5010055;28;20034;-86
2021/05/17 12:49:50;;;;;;;14.30;12.35;;;21.80;91.40;;;;;;5008766;28;20057;-87
2021/05/17 12:52:27;;;;;;;15.90;14.25;;;22.30;94.30;;;;;;5012722;28;20180;-86
2021/05/17 12:55:11;;;;;;;15.27;13.80;;;23.10;99.90;;;;;;5013749;28;20738;-85
2021/05/17 12:57:50;;;;;;;12.85;11.50;;;23.60;95.40;;;;;;5008466;28;20068;-86
2021/05/17 13:00:33;;;;;;;12.93;11.73;;;24.20;96.00;;;;;;5009776;28;21006;-87
2021/05/17 13:03:08;;;;;;;11.73;10.63;;;24.60;96.50;;;;;;4994894;28;20129;-87
2021/05/17 13:06:03;;;;;;;9.40;8.52;;;24.80;90.30;;;;;;5010513;28;20033;-88
2021/05/17 13:08:29;;;;;;;11.00;8.82;;;24.90;90.00;;;;;;5010299;28;20033;-86
2021/05/17 13:11:00;;;;;;;10.23;9.13;;;24.90;91.80;;;;;;5014297;28;20033;-88
2021/05/17 13:13:58;;;;;;;9.00;8.07;;;24.90;91.10;;;;;;5008388;28;20034;-87
2021/05/17 13:16:50;;;;;;;8.73;7.93;;;24.80;79.40;;;;;;5016592;28;20032;-87
2021/05/17 13:31:07;;;;;;;15.15;11.75;;;23.90;85.80;;;;;;5017065;28;20559;-87
2021/05/17 13:37:15;;;;;;;11.43;10.18;;;23.70;80.80;;;;;;4987443;28;20557;-91
2021/05/17 13:40:25;;;;;;;31.63;25.58;;;23.70;87.40;;;;;;5032233;28;20037;-92
2021/05/17 13:43:08;;;;;;;20.88;15.70;;;23.60;81.20;;;;;;5024067;28;20411;-91
2021/05/17 13:45:34;;;;;;;12.52;10.23;;;23.30;84.80;;;;;;5022093;28;20049;-90
2021/05/17 13:48:00;;;;;;;10.63;9.30;;;23.10;86.20;;;;;;5020477;28;20045;-89
2021/05/17 13:50:31;;;;;;;9.07;8.20;;;23.10;87.10;;;;;;5012293;28;20033;-89
2021/05/17 13:53:16;;;;;;;10.23;9.20;;;23.00;87.60;;;;;;5015500;28;20028;-91
2021/05/17 13:55:42;;;;;;;8.88;8.07;;;23.10;83.80;;;;;;5022215;28;20360;-89
2021/05/17 13:58:07;;;;;;;9.02;8.23;;;23.20;87.80;;;;;;5022743;28;20048;-88
2021/05/17 14:00:33;;;;;;;10.60;7.57;;;23.20;87.80;;;;;;5008023;28;20085;-90
2021/05/17 14:02:59;;;;;;;7.78;7.07;;;23.20;88.10;;;;;;5011320;28;20029;-87
2021/05/17 14:05:25;;;;;;;8.05;7.25;;;23.10;88.20;;;;;;5017253;28;20127;-88